sensor_id;sensor_type;location;lat;lon;timestamp;P1;durP1;ratioP1;P2;durP2;ratioP2
42600;SDS011;28229;48.856;9.088;2023-03-14T00:00:57;1.50;;;0.40;;
42600;SDS011;28229;48.856;9.088;2023-03-14T00:03:23;0.40;;;0.40;;
42600;SDS011;28229;48.856;9.088;2023-03-14T00:05:49;0.53;;;0.50;;
42600;SDS011;28229;48.856;9.088;2023-03-14T00:08:15;0.40;;;0.40;;
42600;SDS011;28229;48.856;9.088;2023-03-14T00:10:42;0.77;;;0.50;;
42600;SDS011;28229;48.856;9.088;2023-03-14T00:13:08;1.07;;;0.50;;
42600;SDS011;28229;48.856;9.088;2023-03-14T00:15:34;0.57;;;0.53;;
42600;SDS011;28229;48.856;9.088;2023-03-14T00:18:01;0.70;;;0.50;;
42600;SDS011;28229;48.856;9.088;2023-03-14T00:20:27;0.50;;;0.50;;
42600;SDS011;28229;48.856;9.088;2023-03-14T00:22:53;0.87;;;0.57;;
42600;SDS011;28229;48.856;9.088;2023-03-14T00:25:19;0.50;;;0.50;;
42600;SDS011;28229;48.856;9.088;2023-03-14T00:27:46;0.47;;;0.47;;
42600;SDS011;28229;48.856;9.088;2023-03-14T00:30:12;2.33;;;0.80;;
42600;SDS011;28229;48.856;9.088;2023-03-14T00:32:39;0.50;;;0.47;;
42600;SDS011;28229;48.856;9.088;2023-03-14T00:35:05;0.70;;;0.70;;
42600;SDS011;28229;48.856;9.088;2023-03-14T00:37:32;0.47;;;0.47;;
42600;SDS011;28229;48.856;9.088;2023-03-14T00:39:58;1.20;;;0.80;;
42600;SDS011;28229;48.856;9.088;2023-03-14T00:42:25;0.70;;;0.70;;
42600;SDS011;28229;48.856;9.088;2023-03-14T00:44:51;0.73;;;0.60;;
42600;SDS011;28229;48.856;9.088;2023-03-14T00:47:17;0.57;;;0.43;;
42600;SDS011;28229;48.856;9.088;2023-03-14T00:49:43;0.60;;;0.60;;
42600;SDS011;28229;48.856;9.088;2023-03-14T00:52:09;0.50;;;0.50;;
42600;SDS011;28229;48.856;9.088;2023-03-14T00:54:36;0.60;;;0.60;;
42600;SDS011;28229;48.856;9.088;2023-03-14T00:57:02;1.27;;;0.70;;
42600;SDS011;28229;48.856;9.088;2023-03-14T00:59:29;0.60;;;0.60;;
42600;SDS011;28229;48.856;9.088;2023-03-14T01:01:55;0.67;;;0.67;;
42600;SDS011;28229;48.856;9.088;2023-03-14T01:04:21;1.47;;;0.60;;
42600;SDS011;28229;48.856;9.088;2023-03-14T01:06:48;0.57;;;0.57;;
42600;SDS011;28229;48.856;9.088;2023-03-14T01:09:14;0.63;;;0.63;;
42600;SDS011;28229;48.856;9.088;2023-03-14T01:11:41;0.80;;;0.60;;
42600;SDS011;28229;48.856;9.088;2023-03-14T01:14:08;1.23;;;0.80;;
42600;SDS011;28229;48.856;9.088;2023-03-14T01:16:34;0.60;;;0.60;;
42600;SDS011;28229;48.856;9.088;2023-03-14T01:19:01;0.70;;;0.70;;
42600;SDS011;28229;48.856;9.088;2023-03-14T01:21:29;1.23;;;0.70;;
42600;SDS011;28229;48.856;9.088;2023-03-14T01:23:58;0.50;;;0.50;;
42600;SDS011;28229;48.856;9.088;2023-03-14T01:26:26;0.50;;;0.50;;
42600;SDS011;28229;48.856;9.088;2023-03-14T01:28:55;1.40;;;0.50;;
42600;SDS011;28229;48.856;9.088;2023-03-14T01:31:22;0.30;;;0.30;;
42600;SDS011;28229;48.856;9.088;2023-03-14T01:33:50;0.50;;;0.50;;
42600;SDS011;28229;48.856;9.088;2023-03-14T01:36:16;1.20;;;0.70;;
42600;SDS011;28229;48.856;9.088;2023-03-14T01:38:43;1.03;;;0.60;;
42600;SDS011;28229;48.856;9.088;2023-03-14T01:41:14;0.63;;;0.60;;
42600;SDS011;28229;48.856;9.088;2023-03-14T01:43:44;1.70;;;0.83;;
42600;SDS011;28229;48.856;9.088;2023-03-14T01:46:17;0.60;;;0.53;;
42600;SDS011;28229;48.856;9.088;2023-03-14T01:51:24;0.50;;;0.50;;
42600;SDS011;28229;48.856;9.088;2023-03-14T01:53:59;1.17;;;0.40;;
42600;SDS011;28229;48.856;9.088;2023-03-14T01:56:30;0.50;;;0.50;;
42600;SDS011;28229;48.856;9.088;2023-03-14T01:58:57;0.50;;;0.50;;
42600;SDS011;28229;48.856;9.088;2023-03-14T02:01:25;0.40;;;0.40;;
42600;SDS011;28229;48.856;9.088;2023-03-14T02:03:53;0.50;;;0.50;;
42600;SDS011;28229;48.856;9.088;2023-03-14T02:06:24;0.60;;;0.60;;
42600;SDS011;28229;48.856;9.088;2023-03-14T02:09:00;0.80;;;0.50;;
42600;SDS011;28229;48.856;9.088;2023-03-14T02:11:30;1.17;;;0.57;;
42600;SDS011;28229;48.856;9.088;2023-03-14T02:14:02;1.47;;;0.50;;
42600;SDS011;28229;48.856;9.088;2023-03-14T02:16:55;0.47;;;0.37;;
42600;SDS011;28229;48.856;9.088;2023-03-14T02:22:32;1.03;;;0.50;;
42600;SDS011;28229;48.856;9.088;2023-03-14T02:25:20;1.40;;;0.60;;
42600;SDS011;28229;48.856;9.088;2023-03-14T02:28:07;0.87;;;0.40;;
42600;SDS011;28229;48.856;9.088;2023-03-14T02:30:35;0.63;;;0.50;;
42600;SDS011;28229;48.856;9.088;2023-03-14T02:33:03;0.60;;;0.53;;
42600;SDS011;28229;48.856;9.088;2023-03-14T02:38:20;0.37;;;0.37;;
42600;SDS011;28229;48.856;9.088;2023-03-14T02:40:52;0.80;;;0.50;;
42600;SDS011;28229;48.856;9.088;2023-03-14T02:43:19;0.73;;;0.40;;
42600;SDS011;28229;48.856;9.088;2023-03-14T02:45:52;1.03;;;0.47;;
42600;SDS011;28229;48.856;9.088;2023-03-14T02:48:22;1.00;;;0.40;;
42600;SDS011;28229;48.856;9.088;2023-03-14T02:50:54;0.60;;;0.50;;
42600;SDS011;28229;48.856;9.088;2023-03-14T02:53:27;0.83;;;0.70;;
42600;SDS011;28229;48.856;9.088;2023-03-14T02:55:58;1.10;;;0.50;;
42600;SDS011;28229;48.856;9.088;2023-03-14T02:58:26;1.03;;;0.50;;
42600;SDS011;28229;48.856;9.088;2023-03-14T03:01:00;0.50;;;0.47;;
42600;SDS011;28229;48.856;9.088;2023-03-14T03:03:26;0.80;;;0.70;;
42600;SDS011;28229;48.856;9.088;2023-03-14T03:05:53;1.10;;;0.87;;
42600;SDS011;28229;48.856;9.088;2023-03-14T03:08:22;1.43;;;0.70;;
42600;SDS011;28229;48.856;9.088;2023-03-14T03:10:51;1.63;;;0.50;;
42600;SDS011;28229;48.856;9.088;2023-03-14T03:13:18;2.20;;;0.60;;
42600;SDS011;28229;48.856;9.088;2023-03-14T03:15:49;0.87;;;0.60;;
42600;SDS011;28229;48.856;9.088;2023-03-14T03:18:15;0.73;;;0.60;;
42600;SDS011;28229;48.856;9.088;2023-03-14T03:20:42;0.40;;;0.40;;
42600;SDS011;28229;48.856;9.088;2023-03-14T03:23:08;1.27;;;0.57;;
42600;SDS011;28229;48.856;9.088;2023-03-14T03:25:38;1.47;;;0.60;;
42600;SDS011;28229;48.856;9.088;2023-03-14T03:28:04;2.13;;;0.57;;
42600;SDS011;28229;48.856;9.088;2023-03-14T03:30:38;0.43;;;0.37;;
42600;SDS011;28229;48.856;9.088;2023-03-14T03:33:05;1.17;;;0.67;;
42600;SDS011;28229;48.856;9.088;2023-03-14T03:35:31;1.23;;;0.70;;
42600;SDS011;28229;48.856;9.088;2023-03-14T03:37:58;0.97;;;0.70;;
42600;SDS011;28229;48.856;9.088;2023-03-14T03:40:24;2.30;;;0.90;;
42600;SDS011;28229;48.856;9.088;2023-03-14T03:42:50;1.53;;;0.80;;
42600;SDS011;28229;48.856;9.088;2023-03-14T03:45:17;0.93;;;0.73;;
42600;SDS011;28229;48.856;9.088;2023-03-14T03:47:50;1.40;;;0.70;;
42600;SDS011;28229;48.856;9.088;2023-03-14T03:50:16;2.27;;;0.90;;
42600;SDS011;28229;48.856;9.088;2023-03-14T03:52:43;1.67;;;0.67;;
42600;SDS011;28229;48.856;9.088;2023-03-14T03:55:09;0.93;;;0.60;;
42600;SDS011;28229;48.856;9.088;2023-03-14T03:57:35;1.37;;;0.57;;
42600;SDS011;28229;48.856;9.088;2023-03-14T04:00:02;1.80;;;0.63;;
42600;SDS011;28229;48.856;9.088;2023-03-14T04:02:40;0.80;;;0.50;;
42600;SDS011;28229;48.856;9.088;2023-03-14T04:05:08;0.70;;;0.67;;
42600;SDS011;28229;48.856;9.088;2023-03-14T04:07:35;2.20;;;0.67;;
42600;SDS011;28229;48.856;9.088;2023-03-14T04:10:01;2.50;;;0.67;;
42600;SDS011;28229;48.856;9.088;2023-03-14T04:12:38;1.27;;;0.70;;
42600;SDS011;28229;48.856;9.088;2023-03-14T04:15:09;1.27;;;0.70;;
42600;SDS011;28229;48.856;9.088;2023-03-14T04:17:37;1.20;;;0.70;;
42600;SDS011;28229;48.856;9.088;2023-03-14T04:20:03;0.97;;;0.67;;
42600;SDS011;28229;48.856;9.088;2023-03-14T04:22:35;1.93;;;0.73;;
42600;SDS011;28229;48.856;9.088;2023-03-14T04:25:02;1.17;;;0.80;;
42600;SDS011;28229;48.856;9.088;2023-03-14T04:27:31;2.47;;;0.70;;
42600;SDS011;28229;48.856;9.088;2023-03-14T04:29:59;2.10;;;1.10;;
42600;SDS011;28229;48.856;9.088;2023-03-14T04:32:47;2.30;;;0.90;;
42600;SDS011;28229;48.856;9.088;2023-03-14T04:35:14;1.93;;;0.90;;
42600;SDS011;28229;48.856;9.088;2023-03-14T04:37:40;2.37;;;0.80;;
42600;SDS011;28229;48.856;9.088;2023-03-14T04:40:09;0.90;;;0.67;;
42600;SDS011;28229;48.856;9.088;2023-03-14T04:42:37;2.13;;;1.10;;
42600;SDS011;28229;48.856;9.088;2023-03-14T04:45:04;3.57;;;1.10;;
42600;SDS011;28229;48.856;9.088;2023-03-14T04:47:31;3.73;;;1.10;;
42600;SDS011;28229;48.856;9.088;2023-03-14T04:49:59;1.20;;;0.80;;
42600;SDS011;28229;48.856;9.088;2023-03-14T04:52:26;3.00;;;0.90;;
42600;SDS011;28229;48.856;9.088;2023-03-14T04:54:52;1.87;;;1.00;;
42600;SDS011;28229;48.856;9.088;2023-03-14T04:57:21;2.17;;;0.77;;
42600;SDS011;28229;48.856;9.088;2023-03-14T04:59:47;1.63;;;0.80;;
42600;SDS011;28229;48.856;9.088;2023-03-14T05:02:34;1.90;;;0.77;;
42600;SDS011;28229;48.856;9.088;2023-03-14T05:05:27;2.70;;;0.87;;
42600;SDS011;28229;48.856;9.088;2023-03-14T05:08:11;2.20;;;0.83;;
42600;SDS011;28229;48.856;9.088;2023-03-14T05:10:58;2.33;;;0.90;;
42600;SDS011;28229;48.856;9.088;2023-03-14T05:13:36;0.97;;;0.60;;
42600;SDS011;28229;48.856;9.088;2023-03-14T05:16:21;2.00;;;0.80;;
42600;SDS011;28229;48.856;9.088;2023-03-14T05:19:06;2.27;;;1.00;;
42600;SDS011;28229;48.856;9.088;2023-03-14T05:22:04;1.93;;;0.80;;
42600;SDS011;28229;48.856;9.088;2023-03-14T05:25:00;3.33;;;0.90;;
42600;SDS011;28229;48.856;9.088;2023-03-14T05:27:49;2.13;;;0.80;;
42600;SDS011;28229;48.856;9.088;2023-03-14T05:30:44;1.73;;;0.90;;
42600;SDS011;28229;48.856;9.088;2023-03-14T05:33:23;1.43;;;0.90;;
42600;SDS011;28229;48.856;9.088;2023-03-14T05:36:10;3.47;;;1.37;;
42600;SDS011;28229;48.856;9.088;2023-03-14T05:39:03;2.83;;;1.00;;
42600;SDS011;28229;48.856;9.088;2023-03-14T05:41:43;3.63;;;0.90;;
42600;SDS011;28229;48.856;9.088;2023-03-14T05:44:39;2.97;;;0.90;;
42600;SDS011;28229;48.856;9.088;2023-03-14T05:47:22;2.13;;;0.70;;
42600;SDS011;28229;48.856;9.088;2023-03-14T05:50:00;1.17;;;0.70;;
42600;SDS011;28229;48.856;9.088;2023-03-14T05:52:47;4.17;;;0.90;;
42600;SDS011;28229;48.856;9.088;2023-03-14T05:55:53;1.83;;;0.73;;
42600;SDS011;28229;48.856;9.088;2023-03-14T05:58:41;1.87;;;0.73;;
42600;SDS011;28229;48.856;9.088;2023-03-14T06:01:19;2.10;;;0.70;;
42600;SDS011;28229;48.856;9.088;2023-03-14T06:04:08;1.70;;;0.73;;
42600;SDS011;28229;48.856;9.088;2023-03-14T06:06:35;2.63;;;0.80;;
42600;SDS011;28229;48.856;9.088;2023-03-14T06:09:01;2.17;;;0.60;;
42600;SDS011;28229;48.856;9.088;2023-03-14T06:11:31;1.80;;;0.57;;
42600;SDS011;28229;48.856;9.088;2023-03-14T06:13:57;2.87;;;0.60;;
42600;SDS011;28229;48.856;9.088;2023-03-14T06:16:23;1.43;;;0.70;;
42600;SDS011;28229;48.856;9.088;2023-03-14T06:18:53;3.83;;;0.80;;
42600;SDS011;28229;48.856;9.088;2023-03-14T06:21:20;1.63;;;0.83;;
42600;SDS011;28229;48.856;9.088;2023-03-14T06:23:49;0.93;;;0.60;;
42600;SDS011;28229;48.856;9.088;2023-03-14T06:26:16;1.23;;;0.70;;
42600;SDS011;28229;48.856;9.088;2023-03-14T06:28:43;1.13;;;0.70;;
42600;SDS011;28229;48.856;9.088;2023-03-14T06:31:09;2.37;;;0.73;;
42600;SDS011;28229;48.856;9.088;2023-03-14T06:33:44;1.50;;;0.97;;
42600;SDS011;28229;48.856;9.088;2023-03-14T06:36:11;1.47;;;0.60;;
42600;SDS011;28229;48.856;9.088;2023-03-14T06:38:40;2.83;;;1.23;;
42600;SDS011;28229;48.856;9.088;2023-03-14T06:41:06;1.43;;;0.80;;
42600;SDS011;28229;48.856;9.088;2023-03-14T06:43:38;1.43;;;0.80;;
42600;SDS011;28229;48.856;9.088;2023-03-14T06:46:06;2.53;;;0.80;;
42600;SDS011;28229;48.856;9.088;2023-03-14T06:48:34;2.43;;;0.80;;
42600;SDS011;28229;48.856;9.088;2023-03-14T06:51:02;1.27;;;0.90;;
42600;SDS011;28229;48.856;9.088;2023-03-14T06:53:28;2.73;;;1.00;;
42600;SDS011;28229;48.856;9.088;2023-03-14T06:55:55;1.73;;;0.93;;
42600;SDS011;28229;48.856;9.088;2023-03-14T06:58:26;1.37;;;0.93;;
42600;SDS011;28229;48.856;9.088;2023-03-14T07:00:52;1.00;;;0.63;;
42600;SDS011;28229;48.856;9.088;2023-03-14T07:03:23;1.30;;;0.60;;
42600;SDS011;28229;48.856;9.088;2023-03-14T07:05:52;0.40;;;0.40;;
42600;SDS011;28229;48.856;9.088;2023-03-14T07:08:19;3.40;;;0.80;;
42600;SDS011;28229;48.856;9.088;2023-03-14T07:10:45;1.80;;;0.70;;
42600;SDS011;28229;48.856;9.088;2023-03-14T07:13:12;2.73;;;0.63;;
42600;SDS011;28229;48.856;9.088;2023-03-14T07:15:51;2.63;;;0.97;;
42600;SDS011;28229;48.856;9.088;2023-03-14T07:18:17;0.50;;;0.47;;
42600;SDS011;28229;48.856;9.088;2023-03-14T07:20:45;0.70;;;0.50;;
42600;SDS011;28229;48.856;9.088;2023-03-14T07:23:12;0.80;;;0.50;;
42600;SDS011;28229;48.856;9.088;2023-03-14T07:25:51;2.43;;;1.60;;
42600;SDS011;28229;48.856;9.088;2023-03-14T07:28:19;2.07;;;0.87;;
42600;SDS011;28229;48.856;9.088;2023-03-14T07:30:47;1.13;;;0.60;;
42600;SDS011;28229;48.856;9.088;2023-03-14T07:33:21;0.50;;;0.50;;
42600;SDS011;28229;48.856;9.088;2023-03-14T07:35:48;0.70;;;0.60;;
42600;SDS011;28229;48.856;9.088;2023-03-14T07:38:15;0.90;;;0.50;;
42600;SDS011;28229;48.856;9.088;2023-03-14T07:40:59;1.20;;;0.60;;
42600;SDS011;28229;48.856;9.088;2023-03-14T07:43:32;0.60;;;0.60;;
42600;SDS011;28229;48.856;9.088;2023-03-14T07:46:00;1.13;;;1.00;;
42600;SDS011;28229;48.856;9.088;2023-03-14T07:48:26;1.90;;;0.83;;
42600;SDS011;28229;48.856;9.088;2023-03-14T07:50:53;1.07;;;0.80;;
42600;SDS011;28229;48.856;9.088;2023-03-14T07:53:20;1.13;;;0.50;;
42600;SDS011;28229;48.856;9.088;2023-03-14T07:55:48;0.93;;;0.43;;
42600;SDS011;28229;48.856;9.088;2023-03-14T07:58:18;1.53;;;0.40;;
42600;SDS011;28229;48.856;9.088;2023-03-14T08:00:45;0.73;;;0.43;;
42600;SDS011;28229;48.856;9.088;2023-03-14T08:03:11;0.30;;;0.30;;
42600;SDS011;28229;48.856;9.088;2023-03-14T08:05:37;0.53;;;0.30;;
42600;SDS011;28229;48.856;9.088;2023-03-14T08:08:04;0.40;;;0.30;;
42600;SDS011;28229;48.856;9.088;2023-03-14T08:10:32;1.10;;;0.20;;
42600;SDS011;28229;48.856;9.088;2023-03-14T08:12:58;0.53;;;0.30;;
42600;SDS011;28229;48.856;9.088;2023-03-14T08:15:26;1.13;;;0.30;;
42600;SDS011;28229;48.856;9.088;2023-03-14T08:17:55;0.30;;;0.30;;
42600;SDS011;28229;48.856;9.088;2023-03-14T08:20:22;0.97;;;0.40;;
42600;SDS011;28229;48.856;9.088;2023-03-14T08:22:51;1.03;;;0.30;;
42600;SDS011;28229;48.856;9.088;2023-03-14T08:25:18;0.40;;;0.37;;
42600;SDS011;28229;48.856;9.088;2023-03-14T08:27:44;1.07;;;0.30;;
42600;SDS011;28229;48.856;9.088;2023-03-14T08:30:11;0.63;;;0.30;;
42600;SDS011;28229;48.856;9.088;2023-03-14T08:32:39;0.37;;;0.30;;
42600;SDS011;28229;48.856;9.088;2023-03-14T08:35:05;0.23;;;0.20;;
42600;SDS011;28229;48.856;9.088;2023-03-14T08:37:32;0.30;;;0.30;;
42600;SDS011;28229;48.856;9.088;2023-03-14T08:39:59;0.73;;;0.40;;
42600;SDS011;28229;48.856;9.088;2023-03-14T08:42:25;0.87;;;0.40;;
42600;SDS011;28229;48.856;9.088;2023-03-14T08:44:52;2.60;;;0.30;;
42600;SDS011;28229;48.856;9.088;2023-03-14T08:47:19;0.63;;;0.40;;
42600;SDS011;28229;48.856;9.088;2023-03-14T08:49:45;0.30;;;0.30;;
42600;SDS011;28229;48.856;9.088;2023-03-14T08:52:11;1.03;;;0.40;;
42600;SDS011;28229;48.856;9.088;2023-03-14T08:54:37;0.97;;;0.30;;
42600;SDS011;28229;48.856;9.088;2023-03-14T08:57:03;1.23;;;0.50;;
42600;SDS011;28229;48.856;9.088;2023-03-14T08:59:29;0.50;;;0.47;;
42600;SDS011;28229;48.856;9.088;2023-03-14T09:01:55;0.50;;;0.30;;
42600;SDS011;28229;48.856;9.088;2023-03-14T09:04:22;0.30;;;0.20;;
42600;SDS011;28229;48.856;9.088;2023-03-14T09:06:48;0.27;;;0.20;;
42600;SDS011;28229;48.856;9.088;2023-03-14T09:09:14;0.47;;;0.20;;
42600;SDS011;28229;48.856;9.088;2023-03-14T09:11:40;0.20;;;0.20;;
42600;SDS011;28229;48.856;9.088;2023-03-14T09:14:08;0.73;;;0.30;;
42600;SDS011;28229;48.856;9.088;2023-03-14T09:16:34;1.67;;;0.67;;
42600;SDS011;28229;48.856;9.088;2023-03-14T09:19:01;1.50;;;0.40;;
42600;SDS011;28229;48.856;9.088;2023-03-14T09:21:27;1.07;;;0.53;;
42600;SDS011;28229;48.856;9.088;2023-03-14T09:23:53;0.87;;;0.30;;
42600;SDS011;28229;48.856;9.088;2023-03-14T09:26:19;1.40;;;0.30;;
42600;SDS011;28229;48.856;9.088;2023-03-14T09:28:46;1.33;;;0.30;;
42600;SDS011;28229;48.856;9.088;2023-03-14T09:31:12;0.67;;;0.40;;
42600;SDS011;28229;48.856;9.088;2023-03-14T09:33:39;0.87;;;0.60;;
42600;SDS011;28229;48.856;9.088;2023-03-14T09:36:05;1.70;;;1.17;;
42600;SDS011;28229;48.856;9.088;2023-03-14T09:38:34;1.20;;;0.77;;
42600;SDS011;28229;48.856;9.088;2023-03-14T09:41:01;1.57;;;1.00;;
42600;SDS011;28229;48.856;9.088;2023-03-14T09:43:29;1.53;;;1.10;;
42600;SDS011;28229;48.856;9.088;2023-03-14T09:45:59;1.63;;;1.40;;
42600;SDS011;28229;48.856;9.088;2023-03-14T09:48:29;1.13;;;0.80;;
42600;SDS011;28229;48.856;9.088;2023-03-14T09:50:58;1.27;;;0.40;;
42600;SDS011;28229;48.856;9.088;2023-03-14T09:53:42;0.73;;;0.20;;
42600;SDS011;28229;48.856;9.088;2023-03-14T09:56:21;0.20;;;0.20;;
42600;SDS011;28229;48.856;9.088;2023-03-14T09:58:52;0.70;;;0.30;;
42600;SDS011;28229;48.856;9.088;2023-03-14T10:01:26;0.47;;;0.20;;
42600;SDS011;28229;48.856;9.088;2023-03-14T10:03:54;0.20;;;0.13;;
42600;SDS011;28229;48.856;9.088;2023-03-14T10:06:24;0.83;;;0.40;;
42600;SDS011;28229;48.856;9.088;2023-03-14T10:08:52;0.70;;;0.20;;
42600;SDS011;28229;48.856;9.088;2023-03-14T10:11:20;0.40;;;0.30;;
42600;SDS011;28229;48.856;9.088;2023-03-14T10:13:52;4.53;;;0.63;;
42600;SDS011;28229;48.856;9.088;2023-03-14T10:16:30;0.30;;;0.20;;
42600;SDS011;28229;48.856;9.088;2023-03-14T10:19:02;0.83;;;0.20;;
42600;SDS011;28229;48.856;9.088;2023-03-14T10:21:30;0.23;;;0.13;;
42600;SDS011;28229;48.856;9.088;2023-03-14T10:26:49;0.53;;;0.20;;
42600;SDS011;28229;48.856;9.088;2023-03-14T10:29:19;0.80;;;0.80;;
42600;SDS011;28229;48.856;9.088;2023-03-14T10:31:50;0.30;;;0.30;;
42600;SDS011;28229;48.856;9.088;2023-03-14T10:34:26;0.40;;;0.30;;
42600;SDS011;28229;48.856;9.088;2023-03-14T10:36:55;0.83;;;0.20;;
42600;SDS011;28229;48.856;9.088;2023-03-14T10:39:41;0.33;;;0.23;;
42600;SDS011;28229;48.856;9.088;2023-03-14T10:42:13;1.23;;;0.30;;
42600;SDS011;28229;48.856;9.088;2023-03-14T10:44:45;0.30;;;0.30;;
42600;SDS011;28229;48.856;9.088;2023-03-14T10:47:17;0.40;;;0.30;;
42600;SDS011;28229;48.856;9.088;2023-03-14T10:49:47;0.60;;;0.10;;
42600;SDS011;28229;48.856;9.088;2023-03-14T10:54:40;0.27;;;0.27;;
42600;SDS011;28229;48.856;9.088;2023-03-14T10:57:06;1.03;;;0.30;;
42600;SDS011;28229;48.856;9.088;2023-03-14T10:59:35;0.07;;;0.07;;
42600;SDS011;28229;48.856;9.088;2023-03-14T11:02:05;1.53;;;0.30;;
42600;SDS011;28229;48.856;9.088;2023-03-14T11:04:50;0.83;;;0.30;;
42600;SDS011;28229;48.856;9.088;2023-03-14T11:07:41;1.23;;;0.30;;
42600;SDS011;28229;48.856;9.088;2023-03-14T11:12:55;0.67;;;0.27;;
42600;SDS011;28229;48.856;9.088;2023-03-14T11:15:38;0.13;;;0.10;;
42600;SDS011;28229;48.856;9.088;2023-03-14T11:23:38;0.60;;;0.30;;
42600;SDS011;28229;48.856;9.088;2023-03-14T11:26:28;0.50;;;0.37;;
42600;SDS011;28229;48.856;9.088;2023-03-14T11:29:16;0.47;;;0.20;;
42600;SDS011;28229;48.856;9.088;2023-03-14T11:31:47;0.20;;;0.20;;
42600;SDS011;28229;48.856;9.088;2023-03-14T11:34:16;0.67;;;0.50;;
42600;SDS011;28229;48.856;9.088;2023-03-14T11:36:51;4.80;;;1.70;;
42600;SDS011;28229;48.856;9.088;2023-03-14T11:39:36;0.40;;;0.40;;
42600;SDS011;28229;48.856;9.088;2023-03-14T11:42:24;0.40;;;0.40;;
42600;SDS011;28229;48.856;9.088;2023-03-14T11:44:52;0.30;;;0.30;;
42600;SDS011;28229;48.856;9.088;2023-03-14T11:47:26;0.20;;;0.10;;
42600;SDS011;28229;48.856;9.088;2023-03-14T11:50:00;0.20;;;0.20;;
42600;SDS011;28229;48.856;9.088;2023-03-14T11:52:31;0.10;;;0.10;;
42600;SDS011;28229;48.856;9.088;2023-03-14T11:55:02;0.33;;;0.30;;
42600;SDS011;28229;48.856;9.088;2023-03-14T11:57:31;0.47;;;0.20;;
42600;SDS011;28229;48.856;9.088;2023-03-14T12:02:48;0.20;;;0.20;;
42600;SDS011;28229;48.856;9.088;2023-03-14T12:08:34;0.20;;;0.20;;
42600;SDS011;28229;48.856;9.088;2023-03-14T12:13:39;0.77;;;0.40;;
42600;SDS011;28229;48.856;9.088;2023-03-14T12:16:08;0.23;;;0.23;;
42600;SDS011;28229;48.856;9.088;2023-03-14T12:18:49;0.03;;;0.03;;
42600;SDS011;28229;48.856;9.088;2023-03-14T12:21:17;0.30;;;0.30;;
42600;SDS011;28229;48.856;9.088;2023-03-14T12:23:45;0.20;;;0.20;;
42600;SDS011;28229;48.856;9.088;2023-03-14T12:26:17;0.23;;;0.23;;
42600;SDS011;28229;48.856;9.088;2023-03-14T12:29:30;0.57;;;0.50;;
42600;SDS011;28229;48.856;9.088;2023-03-14T12:31:43;1.60;;;0.50;;
42600;SDS011;28229;48.856;9.088;2023-03-14T12:39:13;0.80;;;0.80;;
42600;SDS011;28229;48.856;9.088;2023-03-14T12:49:45;1.17;;;0.80;;
42600;SDS011;28229;48.856;9.088;2023-03-14T12:52:14;1.67;;;0.70;;
42600;SDS011;28229;48.856;9.088;2023-03-14T12:55:06;2.40;;;1.00;;
42600;SDS011;28229;48.856;9.088;2023-03-14T12:57:48;2.13;;;0.80;;
42600;SDS011;28229;48.856;9.088;2023-03-14T13:00:31;1.37;;;0.80;;
42600;SDS011;28229;48.856;9.088;2023-03-14T13:03:02;1.23;;;0.57;;
42600;SDS011;28229;48.856;9.088;2023-03-14T13:05:53;3.00;;;0.80;;
42600;SDS011;28229;48.856;9.088;2023-03-14T13:08:44;1.87;;;0.70;;
42600;SDS011;28229;48.856;9.088;2023-03-14T13:11:15;1.10;;;0.80;;
42600;SDS011;28229;48.856;9.088;2023-03-14T13:13:48;0.83;;;0.60;;
42600;SDS011;28229;48.856;9.088;2023-03-14T13:16:22;1.47;;;0.60;;
42600;SDS011;28229;48.856;9.088;2023-03-14T13:18:51;3.00;;;0.53;;
42600;SDS011;28229;48.856;9.088;2023-03-14T13:21:28;2.10;;;0.50;;
42600;SDS011;28229;48.856;9.088;2023-03-14T13:24:05;1.27;;;0.70;;
42600;SDS011;28229;48.856;9.088;2023-03-14T13:26:44;1.87;;;0.40;;
42600;SDS011;28229;48.856;9.088;2023-03-14T13:31:43;0.77;;;0.57;;
42600;SDS011;28229;48.856;9.088;2023-03-14T13:34:11;2.63;;;0.67;;
42600;SDS011;28229;48.856;9.088;2023-03-14T13:36:38;1.43;;;0.47;;
42600;SDS011;28229;48.856;9.088;2023-03-14T13:39:06;0.37;;;0.37;;
42600;SDS011;28229;48.856;9.088;2023-03-14T13:41:39;0.47;;;0.30;;
42600;SDS011;28229;48.856;9.088;2023-03-14T13:44:13;0.50;;;0.50;;
42600;SDS011;28229;48.856;9.088;2023-03-14T13:46:42;1.47;;;0.60;;
42600;SDS011;28229;48.856;9.088;2023-03-14T13:49:13;2.27;;;0.60;;
42600;SDS011;28229;48.856;9.088;2023-03-14T13:51:54;0.53;;;0.53;;
42600;SDS011;28229;48.856;9.088;2023-03-14T13:54:21;0.70;;;0.60;;
42600;SDS011;28229;48.856;9.088;2023-03-14T13:56:48;1.23;;;0.70;;
42600;SDS011;28229;48.856;9.088;2023-03-14T13:59:26;1.13;;;0.50;;
42600;SDS011;28229;48.856;9.088;2023-03-14T14:01:54;1.40;;;0.60;;
42600;SDS011;28229;48.856;9.088;2023-03-14T14:04:23;1.27;;;0.40;;
42600;SDS011;28229;48.856;9.088;2023-03-14T14:06:58;0.80;;;0.50;;
42600;SDS011;28229;48.856;9.088;2023-03-14T14:09:27;1.30;;;0.40;;
42600;SDS011;28229;48.856;9.088;2023-03-14T14:12:03;0.90;;;0.40;;
42600;SDS011;28229;48.856;9.088;2023-03-14T14:17:05;0.53;;;0.40;;
42600;SDS011;28229;48.856;9.088;2023-03-14T14:19:34;0.30;;;0.30;;
42600;SDS011;28229;48.856;9.088;2023-03-14T14:22:02;1.50;;;0.50;;
42600;SDS011;28229;48.856;9.088;2023-03-14T14:24:32;2.13;;;0.70;;
42600;SDS011;28229;48.856;9.088;2023-03-14T14:27:08;0.47;;;0.40;;
42600;SDS011;28229;48.856;9.088;2023-03-14T14:29:43;1.97;;;0.77;;
42600;SDS011;28229;48.856;9.088;2023-03-14T14:32:12;1.53;;;0.60;;
42600;SDS011;28229;48.856;9.088;2023-03-14T14:34:41;0.60;;;0.60;;
42600;SDS011;28229;48.856;9.088;2023-03-14T14:37:22;1.97;;;0.50;;
42600;SDS011;28229;48.856;9.088;2023-03-14T14:39:50;1.27;;;0.70;;
42600;SDS011;28229;48.856;9.088;2023-03-14T14:42:19;3.10;;;0.63;;
42600;SDS011;28229;48.856;9.088;2023-03-14T14:44:48;2.53;;;0.60;;
42600;SDS011;28229;48.856;9.088;2023-03-14T14:47:21;1.73;;;0.40;;
42600;SDS011;28229;48.856;9.088;2023-03-14T14:49:49;2.50;;;0.60;;
42600;SDS011;28229;48.856;9.088;2023-03-14T14:52:18;1.23;;;0.60;;
42600;SDS011;28229;48.856;9.088;2023-03-14T14:54:47;2.73;;;0.87;;
42600;SDS011;28229;48.856;9.088;2023-03-14T14:57:31;2.17;;;0.90;;
42600;SDS011;28229;48.856;9.088;2023-03-14T15:00:06;3.77;;;0.97;;
42600;SDS011;28229;48.856;9.088;2023-03-14T15:02:39;2.83;;;1.10;;
42600;SDS011;28229;48.856;9.088;2023-03-14T15:05:20;1.50;;;0.80;;
42600;SDS011;28229;48.856;9.088;2023-03-14T15:07:51;3.40;;;0.90;;
42600;SDS011;28229;48.856;9.088;2023-03-14T15:10:19;3.03;;;0.63;;
42600;SDS011;28229;48.856;9.088;2023-03-14T15:12:48;1.80;;;0.70;;
42600;SDS011;28229;48.856;9.088;2023-03-14T15:15:15;2.53;;;0.80;;
42600;SDS011;28229;48.856;9.088;2023-03-14T15:17:42;3.03;;;0.57;;
42600;SDS011;28229;48.856;9.088;2023-03-14T15:20:13;1.73;;;0.90;;
42600;SDS011;28229;48.856;9.088;2023-03-14T15:22:41;1.37;;;0.80;;
42600;SDS011;28229;48.856;9.088;2023-03-14T15:25:08;1.63;;;0.80;;
42600;SDS011;28229;48.856;9.088;2023-03-14T15:27:35;5.20;;;1.07;;
42600;SDS011;28229;48.856;9.088;2023-03-14T15:30:12;2.87;;;0.80;;
42600;SDS011;28229;48.856;9.088;2023-03-14T15:32:38;3.20;;;1.10;;
42600;SDS011;28229;48.856;9.088;2023-03-14T15:35:05;1.77;;;0.70;;
42600;SDS011;28229;48.856;9.088;2023-03-14T15:37:31;2.97;;;0.80;;
42600;SDS011;28229;48.856;9.088;2023-03-14T15:39:57;1.93;;;0.90;;
42600;SDS011;28229;48.856;9.088;2023-03-14T15:42:24;3.60;;;1.10;;
42600;SDS011;28229;48.856;9.088;2023-03-14T15:44:50;1.70;;;0.70;;
42600;SDS011;28229;48.856;9.088;2023-03-14T15:47:16;3.17;;;1.00;;
42600;SDS011;28229;48.856;9.088;2023-03-14T15:49:43;3.43;;;1.00;;
42600;SDS011;28229;48.856;9.088;2023-03-14T15:52:10;3.10;;;0.97;;
42600;SDS011;28229;48.856;9.088;2023-03-14T15:54:36;1.60;;;0.77;;
42600;SDS011;28229;48.856;9.088;2023-03-14T15:57:02;2.27;;;0.73;;
42600;SDS011;28229;48.856;9.088;2023-03-14T15:59:29;2.20;;;1.00;;